createdAt,value
2023-02-19T00:01:42.349Z,12.83
2023-02-19T00:04:12.945Z,14.00
2023-02-19T00:06:41.017Z,14.23
2023-02-19T00:09:09.051Z,13.80
2023-02-19T00:11:38.515Z,13.10
2023-02-19T00:14:06.738Z,13.37
2023-02-19T00:16:36.031Z,12.97
2023-02-19T00:19:04.917Z,12.97
2023-02-19T00:21:32.945Z,12.63
2023-02-19T00:24:02.036Z,12.80
2023-02-19T00:26:31.826Z,13.73
2023-02-19T00:29:01.602Z,12.63
2023-02-19T00:31:32.650Z,12.00
2023-02-19T00:34:01.864Z,12.40
2023-02-19T00:36:30.468Z,12.00
2023-02-19T00:38:58.513Z,13.57
2023-02-19T00:41:26.706Z,13.37
2023-02-19T00:43:55.648Z,13.40
2023-02-19T00:46:28.119Z,12.40
2023-02-19T00:48:56.480Z,13.60
2023-02-19T00:51:25.571Z,12.70
2023-02-19T00:53:53.600Z,12.67
2023-02-19T00:56:21.652Z,13.63
2023-02-19T00:58:49.854Z,13.10
2023-02-19T01:01:17.912Z,13.17
2023-02-19T01:03:47.619Z,12.87
2023-02-19T01:06:16.971Z,12.97
2023-02-19T01:08:49.922Z,13.83
2023-02-19T01:11:18.020Z,10.77
2023-02-19T01:13:46.102Z,12.30
2023-02-19T01:16:15.219Z,12.23
2023-02-19T01:18:43.251Z,11.23
2023-02-19T01:21:14.541Z,11.57
2023-02-19T01:23:42.575Z,11.13
2023-02-19T01:26:13.077Z,11.40
2023-02-19T01:28:41.102Z,12.17
2023-02-19T01:31:11.688Z,11.20
2023-02-19T01:33:39.927Z,11.07
2023-02-19T01:36:08.332Z,12.77
2023-02-19T01:38:37.711Z,10.73
2023-02-19T01:41:07.116Z,11.00
2023-02-19T01:43:36.318Z,11.60
2023-02-19T01:46:04.446Z,10.90
2023-02-19T01:48:33.786Z,10.63
2023-02-19T01:51:04.528Z,11.90
2023-02-19T01:53:34.020Z,11.67
2023-02-19T01:56:03.498Z,11.40
2023-02-19T01:58:32.757Z,11.30
2023-02-19T02:01:01.030Z,12.70
2023-02-19T02:03:29.091Z,12.07
2023-02-19T02:05:58.601Z,10.53
2023-02-19T02:08:44.203Z,11.17
2023-02-19T02:11:15.211Z,11.70
2023-02-19T02:13:43.252Z,12.30
2023-02-19T02:16:18.957Z,12.03
2023-02-19T02:18:54.490Z,12.30
2023-02-19T02:21:46.111Z,13.07
2023-02-19T02:24:29.902Z,11.90
2023-02-19T02:27:07.444Z,11.50
2023-02-19T02:29:56.161Z,12.07
2023-02-19T02:32:26.336Z,13.10
2023-02-19T02:34:57.407Z,12.43
2023-02-19T02:37:25.539Z,12.50
2023-02-19T02:39:53.571Z,12.03
2023-02-19T02:42:30.708Z,13.10
2023-02-19T02:45:17.691Z,11.87
2023-02-19T02:47:47.624Z,12.93
2023-02-19T02:50:17.545Z,12.67
2023-02-19T02:53:08.848Z,13.00
2023-02-19T02:55:39.139Z,13.27
2023-02-19T02:58:07.270Z,13.07
2023-02-19T03:00:50.702Z,13.43
2023-02-19T03:03:19.187Z,11.73
2023-02-19T03:05:53.318Z,13.67
2023-02-19T03:08:24.364Z,12.30
2023-02-19T03:10:54.004Z,10.97
2023-02-19T03:13:55.796Z,12.63
2023-02-19T03:16:45.141Z,13.37
2023-02-19T03:19:20.730Z,13.17
2023-02-19T03:21:51.090Z,12.63
2023-02-19T03:24:36.604Z,12.20
2023-02-19T03:27:04.724Z,13.13
2023-02-19T03:29:33.617Z,13.60
2023-02-19T03:32:04.558Z,12.47
2023-02-19T03:34:33.925Z,12.20
2023-02-19T03:37:03.345Z,13.27
2023-02-19T03:39:32.009Z,11.80
2023-02-19T03:42:04.200Z,12.67
2023-02-19T03:44:37.697Z,13.40
2023-02-19T03:47:09.047Z,12.27
2023-02-19T03:49:41.281Z,12.33
2023-02-19T03:52:11.811Z,12.13
2023-02-19T03:54:40.764Z,12.33
2023-02-19T03:57:17.648Z,11.23
2023-02-19T03:59:49.392Z,12.30
2023-02-19T04:02:20.650Z,12.20
2023-02-19T04:04:50.865Z,12.53
2023-02-19T04:07:18.920Z,11.40
2023-02-19T04:09:48.584Z,12.27
2023-02-19T04:12:16.667Z,12.50
2023-02-19T04:14:46.094Z,11.17
2023-02-19T04:17:17.089Z,10.80
2023-02-19T04:19:46.503Z,12.60
2023-02-19T04:22:14.549Z,11.07
2023-02-19T04:24:44.354Z,11.47
2023-02-19T04:27:12.391Z,11.10
2023-02-19T04:29:40.547Z,11.97
2023-02-19T04:32:10.416Z,11.30
2023-02-19T04:34:38.451Z,11.20
2023-02-19T04:37:07.883Z,10.93
2023-02-19T04:39:35.967Z,11.07
2023-02-19T04:42:04.003Z,10.80
2023-02-19T04:44:32.014Z,9.80
2023-02-19T04:47:00.130Z,11.00
2023-02-19T04:49:28.214Z,9.73
2023-02-19T04:51:56.265Z,9.87
2023-02-19T04:54:25.717Z,10.70
2023-02-19T04:56:53.767Z,9.90
2023-02-19T04:59:21.798Z,9.70
2023-02-19T05:01:49.866Z,9.70
2023-02-19T05:04:17.904Z,9.57
2023-02-19T05:06:45.945Z,9.90
2023-02-19T05:09:14.012Z,10.00
2023-02-19T05:11:43.452Z,10.10
2023-02-19T05:14:11.563Z,9.80
2023-02-19T05:16:39.636Z,9.40
2023-02-19T05:19:07.666Z,10.17
2023-02-19T05:21:35.731Z,10.20
2023-02-19T05:24:03.900Z,9.60
2023-02-19T05:26:32.134Z,9.87
2023-02-19T05:29:01.535Z,9.00
2023-02-19T05:31:29.968Z,9.50
2023-02-19T05:33:58.090Z,10.70
2023-02-19T05:36:26.216Z,9.17
2023-02-19T05:38:55.053Z,8.97
2023-02-19T05:41:23.936Z,9.57
2023-02-19T05:43:52.057Z,8.70
2023-02-19T05:46:22.326Z,9.70
2023-02-19T05:48:50.564Z,8.57
2023-02-19T05:51:19.735Z,9.50
2023-02-19T05:53:48.057Z,9.60
2023-02-19T05:56:28.773Z,8.43
2023-02-19T05:58:56.932Z,9.40
2023-02-19T06:01:27.541Z,9.27
2023-02-19T06:03:57.523Z,9.17
2023-02-19T06:06:25.983Z,9.80
2023-02-19T06:08:54.143Z,8.73
2023-02-19T06:11:22.175Z,8.13
2023-02-19T06:13:50.622Z,9.40
2023-02-19T06:16:20.066Z,8.27
2023-02-19T06:18:49.643Z,9.50
2023-02-19T06:21:17.853Z,8.90
2023-02-19T06:23:46.005Z,9.60
2023-02-19T06:26:15.289Z,8.53
2023-02-19T06:28:43.442Z,9.57
2023-02-19T06:31:12.160Z,8.70
2023-02-19T06:33:40.839Z,9.30
2023-02-19T06:36:12.862Z,8.97
2023-02-19T06:38:40.883Z,9.73
2023-02-19T06:41:09.605Z,8.47
2023-02-19T06:43:38.121Z,8.30
2023-02-19T06:46:07.363Z,8.00
2023-02-19T06:48:35.535Z,8.57
2023-02-19T06:51:03.610Z,8.87
2023-02-19T06:53:33.158Z,8.80
2023-02-19T06:56:01.777Z,8.07
2023-02-19T06:58:29.838Z,8.53
2023-02-19T07:00:57.906Z,8.70
2023-02-19T07:03:26.512Z,9.03
2023-02-19T07:05:54.649Z,8.00
2023-02-19T07:08:22.694Z,7.80
2023-02-19T07:10:57.259Z,7.23
2023-02-19T07:13:25.308Z,7.50
2023-02-19T07:15:53.376Z,8.40
2023-02-19T07:18:21.396Z,7.47
2023-02-19T07:20:49.417Z,7.80
2023-02-19T07:23:17.443Z,8.20
2023-02-19T07:25:45.477Z,7.33
2023-02-19T07:28:16.417Z,7.73
2023-02-19T07:30:44.481Z,8.50
2023-02-19T07:33:12.512Z,7.47
2023-02-19T07:35:45.966Z,8.33
2023-02-19T07:38:14.010Z,7.40
2023-02-19T07:40:42.090Z,7.83
2023-02-19T07:43:10.130Z,7.53
2023-02-19T07:45:39.568Z,7.57
2023-02-19T07:48:07.612Z,7.70
2023-02-19T07:50:35.631Z,7.50
2023-02-19T07:53:03.708Z,7.30
2023-02-19T07:55:32.736Z,7.30
2023-02-19T07:58:00.745Z,7.60
2023-02-19T08:00:28.794Z,7.17
2023-02-19T08:02:59.951Z,6.67
2023-02-19T08:05:28.013Z,7.70
2023-02-19T08:07:56.047Z,7.17
2023-02-19T08:10:41.435Z,6.53
2023-02-19T08:13:22.678Z,6.90
2023-02-19T08:15:51.039Z,6.50
2023-02-19T08:18:21.712Z,6.57
2023-02-19T08:20:49.789Z,6.80
2023-02-19T08:23:17.814Z,7.47
2023-02-19T08:25:45.875Z,7.07
2023-02-19T08:28:13.948Z,6.50
2023-02-19T08:30:45.319Z,7.20
2023-02-19T08:33:13.848Z,6.20
2023-02-19T08:35:43.428Z,6.67
2023-02-19T08:38:11.948Z,6.87
2023-02-19T08:40:40.423Z,6.90
2023-02-19T08:43:09.897Z,6.47
2023-02-19T08:45:38.506Z,6.23
2023-02-19T08:48:06.848Z,6.30
2023-02-19T08:50:35.109Z,6.27
2023-02-19T08:53:04.941Z,5.90
2023-02-19T08:55:33.046Z,6.60
2023-02-19T08:58:01.208Z,6.30
2023-02-19T09:00:32.294Z,6.10
2023-02-19T09:03:00.301Z,6.60
2023-02-19T09:05:28.351Z,6.67
2023-02-19T09:07:56.387Z,6.07
2023-02-19T09:10:25.832Z,5.97
2023-02-19T09:12:53.835Z,6.00
2023-02-19T09:15:21.847Z,6.00
2023-02-19T09:17:52.751Z,6.50
2023-02-19T09:20:20.855Z,5.70
2023-02-19T09:22:48.887Z,5.80
2023-02-19T09:25:17.138Z,6.43
2023-02-19T09:27:46.712Z,6.30
2023-02-19T09:30:14.893Z,5.80
2023-02-19T09:32:43.006Z,5.77
2023-02-19T09:35:11.070Z,6.53
2023-02-19T09:37:39.129Z,6.50
2023-02-19T09:40:07.808Z,7.10
2023-02-19T09:42:35.858Z,6.20
2023-02-19T09:45:05.640Z,6.30
2023-02-19T09:47:34.391Z,6.70
2023-02-19T09:50:03.925Z,5.87
2023-02-19T09:52:34.039Z,6.13
2023-02-19T09:55:03.612Z,5.67
2023-02-19T09:57:32.213Z,5.80
2023-02-19T10:00:03.000Z,5.90
2023-02-19T10:02:32.529Z,6.07
2023-02-19T10:05:01.743Z,5.87
2023-02-19T10:07:35.777Z,6.20
2023-02-19T10:10:07.463Z,5.70
2023-02-19T10:12:35.762Z,6.27
2023-02-19T10:15:12.367Z,5.67
2023-02-19T10:17:41.767Z,5.47
2023-02-19T10:20:11.470Z,6.20
2023-02-19T10:22:39.498Z,5.83
2023-02-19T10:25:07.745Z,5.60
2023-02-19T10:27:35.768Z,6.10
2023-02-19T10:30:03.850Z,6.47
2023-02-19T10:32:31.911Z,5.40
2023-02-19T10:35:11.740Z,5.20
2023-02-19T10:37:43.647Z,5.67
2023-02-19T10:40:16.859Z,5.73
2023-02-19T10:42:46.988Z,6.03
2023-02-19T10:45:19.670Z,6.03
2023-02-19T10:47:47.816Z,5.60
2023-02-19T10:50:22.928Z,5.83
2023-02-19T10:52:53.519Z,6.13
2023-02-19T10:55:28.444Z,5.63
2023-02-19T10:57:56.591Z,5.40
2023-02-19T11:00:26.975Z,5.10
2023-02-19T11:03:18.298Z,4.93
2023-02-19T11:05:59.171Z,5.13
2023-02-19T11:08:32.290Z,5.43
2023-02-19T11:11:00.315Z,4.57
2023-02-19T11:13:31.002Z,5.33
2023-02-19T11:15:59.357Z,4.97
2023-02-19T11:18:28.196Z,4.80
2023-02-19T11:20:58.531Z,5.50
2023-02-19T11:23:28.182Z,5.60
2023-02-19T11:25:57.686Z,4.70
2023-02-19T11:28:31.183Z,5.10
2023-02-19T11:31:15.434Z,4.77
2023-02-19T11:33:46.994Z,4.67
2023-02-19T11:36:32.999Z,4.77
2023-02-19T11:39:03.764Z,4.77
2023-02-19T11:41:44.745Z,5.03
2023-02-19T11:44:21.057Z,4.30
2023-02-19T11:46:52.130Z,4.50
2023-02-19T11:49:27.011Z,4.73
2023-02-19T11:52:04.233Z,4.40
2023-02-19T11:54:48.716Z,4.13
2023-02-19T11:57:21.514Z,4.40
2023-02-19T11:59:49.987Z,4.67
2023-02-19T12:02:40.999Z,3.60
2023-02-19T12:05:23.378Z,3.90
2023-02-19T12:08:20.844Z,4.70
2023-02-19T12:10:57.066Z,3.47
2023-02-19T12:13:27.630Z,4.03
2023-02-19T12:16:02.027Z,4.33
2023-02-19T12:19:31.062Z,3.63
2023-02-19T12:22:10.299Z,3.90
2023-02-19T12:24:59.993Z,3.97
2023-02-19T12:27:35.078Z,3.23
2023-02-19T12:30:17.221Z,4.40
2023-02-19T12:32:55.140Z,4.03
2023-02-19T12:35:33.789Z,3.87
2023-02-19T12:38:07.050Z,3.77
2023-02-19T12:40:42.463Z,3.47
2023-02-19T12:43:13.119Z,3.83
2023-02-19T12:45:43.900Z,3.50
2023-02-19T12:48:17.974Z,3.57
2023-02-19T12:50:46.336Z,4.30
2023-02-19T12:53:27.965Z,3.30
2023-02-19T12:55:57.380Z,3.23
2023-02-19T12:58:29.179Z,3.47
2023-02-19T13:00:59.737Z,3.60
2023-02-19T13:03:31.498Z,2.80
2023-02-19T13:06:03.442Z,3.80
2023-02-19T13:08:34.255Z,3.77
2023-02-19T13:11:06.368Z,3.03
2023-02-19T13:13:38.476Z,3.30
2023-02-19T13:16:10.552Z,3.30
2023-02-19T13:18:42.111Z,3.50
2023-02-19T13:21:10.417Z,3.27
2023-02-19T13:23:56.945Z,3.30
2023-02-19T13:26:50.542Z,3.27
2023-02-19T13:29:27.775Z,3.40
2023-02-19T13:32:20.494Z,3.37
2023-02-19T13:34:56.886Z,3.10
2023-02-19T13:37:24.940Z,3.10
2023-02-19T13:39:53.940Z,3.20
2023-02-19T13:42:33.550Z,3.30
2023-02-19T13:45:02.187Z,3.10
2023-02-19T13:47:49.033Z,2.90
2023-02-19T13:50:21.983Z,3.50
2023-02-19T13:52:50.103Z,2.93
2023-02-19T13:55:48.600Z,2.90
2023-02-19T13:59:01.523Z,3.17
2023-02-19T14:02:17.763Z,2.80
2023-02-19T14:04:57.137Z,2.90
2023-02-19T14:07:37.422Z,3.07
2023-02-19T14:10:06.373Z,3.17
2023-02-19T14:12:34.631Z,3.50
2023-02-19T14:15:44.115Z,3.33
2023-02-19T14:18:43.750Z,3.30
2023-02-19T14:21:19.645Z,3.10
2023-02-19T14:23:49.293Z,3.30
2023-02-19T14:26:17.774Z,3.37
2023-02-19T14:28:46.018Z,3.27
2023-02-19T14:31:25.096Z,3.17
2023-02-19T14:33:53.792Z,3.00
2023-02-19T14:36:29.392Z,4.20
2023-02-19T14:38:58.405Z,3.57
2023-02-19T14:41:26.436Z,3.07
2023-02-19T14:43:55.401Z,3.20
2023-02-19T14:46:29.732Z,3.33
2023-02-19T14:48:59.563Z,3.40
2023-02-19T14:51:31.976Z,3.60
2023-02-19T14:54:00.100Z,3.43
2023-02-19T14:56:34.264Z,3.37
2023-02-19T14:59:24.029Z,3.70
2023-02-19T15:01:59.233Z,3.70
2023-02-19T15:04:37.668Z,4.07
2023-02-19T15:07:09.627Z,3.40
2023-02-19T15:09:38.845Z,4.13
2023-02-19T15:12:07.346Z,3.67
2023-02-19T15:14:35.376Z,3.27
2023-02-19T15:17:05.997Z,3.53
2023-02-19T15:19:35.356Z,3.70
2023-02-19T15:22:03.369Z,4.13
2023-02-19T15:24:31.499Z,3.60
2023-02-19T15:26:59.531Z,4.13
2023-02-19T15:29:28.457Z,3.83
2023-02-19T15:31:57.716Z,4.00
2023-02-19T15:34:27.888Z,3.87
2023-02-19T15:36:57.936Z,4.40
2023-02-19T15:39:26.743Z,4.80
2023-02-19T15:41:59.105Z,5.60
2023-02-19T15:44:38.900Z,9.17
2023-02-19T15:47:12.970Z,6.83
2023-02-19T15:49:47.190Z,8.13
2023-02-19T15:52:20.451Z,8.97
2023-02-19T15:54:50.737Z,8.80
2023-02-19T15:57:20.443Z,9.90
2023-02-19T15:59:49.615Z,9.63
2023-02-19T16:02:17.683Z,9.90
2023-02-19T16:04:47.100Z,9.80
2023-02-19T16:07:36.105Z,9.37
2023-02-19T16:10:13.389Z,10.27
2023-02-19T16:12:42.145Z,10.20
2023-02-19T16:15:14.741Z,37.00
2023-02-19T16:17:43.870Z,21.87
2023-02-19T16:20:20.785Z,14.53
2023-02-19T16:22:48.807Z,12.57
2023-02-19T16:25:28.907Z,13.10
2023-02-19T16:27:56.950Z,10.83
2023-02-19T16:30:28.566Z,10.37
2023-02-19T16:33:34.782Z,11.10
2023-02-19T16:39:16.890Z,10.77
2023-02-19T16:42:14.546Z,10.80
2023-02-19T16:44:45.162Z,10.20
2023-02-19T16:47:37.986Z,9.60
2023-02-19T16:50:12.752Z,10.43
2023-02-19T16:52:52.018Z,9.97
2023-02-19T16:55:21.499Z,8.90
2023-02-19T16:57:49.589Z,8.60
2023-02-19T17:00:19.182Z,9.20
2023-02-19T17:02:48.161Z,8.97
2023-02-19T17:05:16.418Z,8.37
2023-02-19T17:07:44.569Z,8.40
2023-02-19T17:10:14.089Z,8.93
2023-02-19T17:12:43.636Z,7.57
2023-02-19T17:15:12.209Z,7.53
2023-02-19T17:17:40.305Z,6.70
2023-02-19T17:20:19.115Z,7.50
2023-02-19T17:22:50.653Z,7.30
2023-02-19T17:25:18.720Z,7.40
2023-02-19T17:27:48.190Z,7.53
2023-02-19T17:30:17.998Z,7.33
2023-02-19T17:32:46.069Z,7.10
2023-02-19T17:35:14.470Z,7.13
2023-02-19T17:37:42.563Z,7.00
2023-02-19T17:40:30.677Z,6.97
2023-02-19T17:43:01.945Z,6.33
2023-02-19T17:45:30.156Z,6.97
2023-02-19T17:47:58.246Z,6.10
2023-02-19T17:50:27.699Z,5.90
2023-02-19T17:52:55.738Z,6.40
2023-02-19T17:55:23.741Z,5.93
2023-02-19T17:57:52.468Z,5.87
2023-02-19T18:00:23.048Z,5.90
2023-02-19T18:02:51.096Z,6.20
2023-02-19T18:05:19.151Z,6.53
2023-02-19T18:07:47.487Z,5.80
2023-02-19T18:10:15.759Z,6.27
2023-02-19T18:12:43.780Z,5.63
2023-02-19T18:15:15.899Z,4.93
2023-02-19T18:17:45.334Z,5.77
2023-02-19T18:20:15.043Z,5.87
2023-02-19T18:22:43.200Z,4.97
2023-02-19T18:25:11.439Z,5.90
2023-02-19T18:27:39.508Z,5.90
2023-02-19T18:30:08.714Z,5.97
2023-02-19T18:32:36.867Z,5.90
2023-02-19T18:35:06.812Z,5.60
2023-02-19T18:37:35.517Z,5.30
2023-02-19T18:40:03.780Z,6.33
2023-02-19T18:42:31.831Z,5.70
2023-02-19T18:44:59.854Z,5.80
2023-02-19T18:47:27.950Z,5.57
2023-02-19T18:49:56.675Z,5.43
2023-02-19T18:52:26.833Z,5.67
2023-02-19T18:54:57.243Z,5.43
2023-02-19T18:57:25.500Z,5.30
2023-02-19T18:59:53.575Z,4.80
2023-02-19T19:02:21.716Z,5.57
2023-02-19T19:04:50.388Z,5.17
2023-02-19T19:07:18.520Z,5.47
2023-02-19T19:09:47.957Z,4.67
2023-02-19T19:12:16.258Z,4.63
2023-02-19T19:14:44.312Z,4.67
2023-02-19T19:17:12.375Z,5.10
2023-02-19T19:19:45.294Z,4.77
2023-02-19T19:22:13.487Z,5.27
2023-02-19T19:24:41.506Z,4.90
2023-02-19T19:27:10.944Z,4.47
2023-02-19T19:29:39.354Z,4.97
2023-02-19T19:32:08.688Z,4.67
2023-02-19T19:34:36.979Z,4.30
2023-02-19T19:37:05.072Z,4.10
2023-02-19T19:39:33.153Z,4.57
2023-02-19T19:42:01.226Z,4.37
2023-02-19T19:44:30.665Z,4.40
2023-02-19T19:46:58.688Z,4.17
2023-02-19T19:49:26.706Z,4.20
2023-02-19T19:51:56.561Z,3.97
2023-02-19T19:54:25.690Z,4.90
2023-02-19T19:56:53.730Z,3.87
2023-02-19T19:59:26.709Z,4.07
2023-02-19T20:01:57.949Z,3.83
2023-02-19T20:04:26.305Z,4.23
2023-02-19T20:06:54.421Z,4.27
2023-02-19T20:09:25.494Z,3.83
2023-02-19T20:11:53.813Z,4.53
2023-02-19T20:14:22.291Z,3.90
2023-02-19T20:16:50.687Z,4.40
2023-02-19T20:19:20.449Z,3.70
2023-02-19T20:21:48.667Z,3.50
2023-02-19T20:24:17.137Z,3.90
2023-02-19T20:26:45.270Z,4.03
2023-02-19T20:29:13.341Z,3.87
2023-02-19T20:31:41.495Z,3.30
2023-02-19T20:34:09.557Z,3.97
2023-02-19T20:36:44.622Z,3.67
2023-02-19T20:39:12.734Z,4.00
2023-02-19T20:41:40.763Z,3.80
2023-02-19T20:44:08.830Z,3.97
2023-02-19T20:46:42.296Z,4.30
2023-02-19T20:49:10.400Z,3.53
2023-02-19T20:51:45.514Z,3.03
2023-02-19T20:54:13.530Z,3.80
2023-02-19T20:56:45.163Z,3.63
2023-02-19T20:59:13.582Z,3.67
2023-02-19T21:01:41.829Z,4.20
2023-02-19T21:04:09.917Z,4.03
2023-02-19T21:06:37.956Z,3.57
2023-02-19T21:09:07.341Z,3.80
2023-02-19T21:11:35.365Z,3.67
2023-02-19T21:14:03.411Z,3.57
2023-02-19T21:16:32.051Z,3.70
2023-02-19T21:19:00.153Z,4.13
2023-02-19T21:21:30.211Z,3.90
2023-02-19T21:23:59.356Z,4.23
2023-02-19T21:26:33.866Z,4.23
2023-02-19T21:29:01.928Z,4.20
2023-02-19T21:31:37.076Z,4.10
2023-02-19T21:34:06.064Z,3.80
2023-02-19T21:36:34.080Z,3.90
2023-02-19T21:39:02.221Z,3.83
2023-02-19T21:41:31.688Z,4.20
2023-02-19T21:43:59.728Z,4.50
2023-02-19T21:46:27.846Z,4.17
2023-02-19T21:48:56.661Z,3.70
2023-02-19T21:51:29.566Z,3.40
2023-02-19T21:53:57.581Z,4.43
2023-02-19T21:56:25.996Z,4.40
2023-02-19T21:58:55.391Z,4.20
2023-02-19T22:01:23.664Z,4.33
2023-02-19T22:03:51.705Z,4.13
2023-02-19T22:06:19.786Z,4.67
2023-02-19T22:08:47.813Z,4.53
2023-02-19T22:11:15.821Z,4.63
2023-02-19T22:13:43.854Z,4.17
2023-02-19T22:16:13.567Z,4.30
2023-02-19T22:18:47.544Z,4.87
2023-02-19T22:21:15.745Z,4.30
2023-02-19T22:23:45.855Z,4.20
2023-02-19T22:26:19.734Z,5.10
2023-02-19T22:28:47.840Z,4.43
2023-02-19T22:31:17.922Z,4.60
2023-02-19T22:33:46.051Z,4.30
2023-02-19T22:36:16.375Z,4.70
2023-02-19T22:38:44.476Z,4.30
2023-02-19T22:41:12.519Z,4.47
2023-02-19T22:43:40.574Z,4.37
2023-02-19T22:46:11.527Z,4.60
2023-02-19T22:48:41.251Z,4.13
2023-02-19T22:51:13.130Z,4.30
2023-02-19T22:53:44.931Z,3.70
2023-02-19T22:56:13.361Z,4.60
2023-02-19T22:58:41.996Z,4.10
2023-02-19T23:01:10.089Z,4.53
2023-02-19T23:03:50.693Z,3.97
2023-02-19T23:06:19.039Z,4.00
2023-02-19T23:08:47.057Z,3.77
2023-02-19T23:11:19.662Z,3.53
2023-02-19T23:13:47.689Z,3.43
2023-02-19T23:16:15.836Z,3.30
2023-02-19T23:18:43.918Z,3.97
2023-02-19T23:21:13.474Z,3.67
2023-02-19T23:23:42.489Z,3.50
2023-02-19T23:26:10.908Z,3.50
2023-02-19T23:28:40.402Z,3.60
2023-02-19T23:31:08.695Z,4.03
2023-02-19T23:33:36.790Z,3.63
2023-02-19T23:36:05.302Z,3.67
2023-02-19T23:38:34.708Z,3.40
2023-02-19T23:41:02.754Z,4.20
2023-02-19T23:43:30.775Z,2.90
2023-02-19T23:45:58.841Z,3.40
2023-02-19T23:48:26.956Z,2.97
2023-02-19T23:50:55.039Z,3.17
2023-02-19T23:53:26.882Z,3.60
2023-02-19T23:55:56.307Z,2.63
2023-02-19T23:58:24.341Z,3.10
